• Join FlightAware (Why Join?)
  • Login
  • US Flag 
11:24AM EDT


 

Airport Tracker/Info


-or-


 

Live Flight TrackerFlight Track Log ✈ DAL1562 ✈ 15-Apr-2013 ✈ KDTW - KPHL

Flight Track Log - Related Links

Times and Time Zones

All times are in EDT time to prevent confusion due to time zone crossing. See the DAL1562 flight status page for this flight to view local times or setup timezone preferences in your user account.

Time Position Orientation Groundspeed Altitude Reporting Facility
EDT Latitude Longitude Course Direction KTS MPH feet Rate Location/Type
02:41PM 42.2017 -83.3583 195° South 158 182 1,500  Level Cleveland Center
02:41PM 42.1678 -83.3708 195° South 221 254 2,600 2,520 Climbing Cleveland Center
02:42PM 42.1092 -83.3906 194° South 249 287 5,600 3,180 Climbing Cleveland Center
02:43PM 42.0397 -83.4097 192° South 268 308 8,800 2,580 Climbing Cleveland Center
02:44PM 41.9850 -83.3458 139° Southeast 352 405 10,600 1,620 Climbing Cleveland Center
02:45PM 41.9869 -83.2594 88° East 391 450 11,300 1,440 Climbing Cleveland Center
02:46PM 42.0319 -83.1186 67° East 436 502 13,000 1,380 Climbing Cleveland Center
02:47PM 42.0725 -82.9778 69° East 424 488 14,100 1,560 Climbing Cleveland Center
02:48PM 42.1153 -82.8281 69° East 424 488 16,200 2,220 Climbing Cleveland Center
02:49PM 42.1597 -82.6756 68° East 419 482 18,600 2,160 Climbing Cleveland Center
02:50PM 42.2042 -82.5228 69° East 430 495 20,600 1,620 Climbing Cleveland Center
02:51PM 42.2172 -82.3522 84° East 443 510 21,900 1,680 Climbing Cleveland Center
02:52PM 42.2075 -82.1753 94° East 449 517 24,000 1,680 Climbing Cleveland Center
02:53PM 42.1931 -81.9983 96° East 470 541 25,300 1,200 Climbing Cleveland Center
02:54PM 42.1217 -81.8569 124° Southeast 458 527 26,500 1,020 Climbing Cleveland Center
02:55PM 42.0186 -81.7403 140° Southeast 464 534 27,400 900 Climbing Cleveland Center
02:56PM 41.9281 -81.6325 138° Southeast 479 551 28,300 1,260 Climbing Cleveland Center
02:57PM 41.8247 -81.5139 139° Southeast 493 567 30,000 1,320 Climbing Cleveland Center
02:58PM 41.7217 -81.3956 139° Southeast 492 566 31,000 480 Climbing Cleveland Center
02:59PM 41.6203 -81.2775 139° Southeast 492 566 31,000  Level Cleveland Center
03:00PM 41.5061 -81.1461 139° Southeast 492 566 31,000  Level Cleveland Center
03:01PM 41.4089 -81.0150 135° Southeast 492 566 31,000  Level Cleveland Center
03:02PM 41.3133 -80.8789 133° Southeast 499 574 31,000  Level Cleveland Center
03:03PM 41.2197 -80.7486 134° Southeast 493 567 31,000  Level Cleveland Center
03:04PM 41.1344 -80.6300 134° Southeast 493 567 31,000  Level Cleveland Center
03:05PM 41.0322 -80.4867 133° Southeast 493 567 31,000  Level Cleveland Center
03:06PM 40.9361 -80.3550 134° Southeast 493 567 31,000  Level Cleveland Center
03:07PM 40.8442 -80.2400 137° Southeast 493 567 31,000  Level Cleveland Center
03:08PM 40.7789 -80.0814 118° Southeast 493 567 31,000  Level Cleveland Center
03:09PM 40.7156 -79.8956 114° Southeast 499 574 31,000  Level Cleveland Center
03:10PM 40.6539 -79.7319 116° Southeast 499 574 31,000  Level Cleveland Center
03:11PM 40.5942 -79.5686 116° Southeast 493 567 31,000  Level Cleveland Center
03:12PM 40.5467 -79.3944 110° East 493 567 31,000  Level Cleveland Center
03:13PM 40.5178 -79.2394 104° East 493 567 31,000  Level Cleveland Center
03:14PM 40.4906 -79.0597 101° East 493 567 31,000  Level Cleveland Center
03:15PM 40.4606 -78.8611 101° East 493 567 31,000  Level Cleveland Center
03:16PM 40.4308 -78.6847 102° East 493 567 31,000 -300 Level Cleveland Center
03:17PM 40.4047 -78.5056 101° East 498 573 30,500 -1,800 Descending Cleveland Center
03:18PM 40.3558 -78.2211 103° East 499 574 26,200 -2,040 Descending New York Center
03:19PM 40.3269 -78.0489 102° East 494 568 25,000 -600 Descending New York Center
03:21PM 40.3125 -77.8758 96° East 489 563 25,000 -300 Level New York Center
03:21PM 40.3100 -77.7042 91° East 484 557 24,500 -600 Descending New York Center
03:22PM 40.3117 -77.5356 89° East 479 551 23,900 -720 Descending New York Center
03:24PM 40.3083 -77.3717 91° East 466 536 23,100 -840 Descending New York Center
03:25PM 40.3039 -77.1861 92° East 461 531 22,300 -720 Descending New York Center
03:26PM 40.2922 -77.0164 95° East 461 531 21,700 -600 Descending New York Center
03:26PM 40.2544 -76.8606 108° East 461 531 21,200 -960 Descending New York Center
03:27PM 40.2206 -76.7053 106° East 456 525 19,800 -1,800 Descending New York Center
03:29PM 40.2086 -76.5683 96° East 431 496 17,600 -2,160 Descending New York Center
03:30PM 40.1850 -76.4114 101° East 401 461 15,500 -2,040 Descending New York Center
03:30PM 40.1758 -76.3547 102° East 385 443 14,800 -1,860 Descending FAA TRACON SMA TRACON (SMA)
03:30PM 40.1697 -76.3144 101° East 374 430 14,200 -2,400 Descending FAA TRACON SMA TRACON (SMA)
03:31PM 40.1617 -76.2647 102° East 367 422 13,200 -2,700 Descending FAA TRACON SMA TRACON (SMA)
03:31PM 40.1581 -76.2247 97° East 365 420 12,400 -2,280 Descending FAA TRACON SMA TRACON (SMA)
03:31PM 40.1500 -76.1853 105° East 361 415 11,700 -2,100 Descending FAA TRACON SMA TRACON (SMA)
03:32PM 40.1428 -76.1361 101° East 359 413 11,000 -1,980 Descending FAA TRACON SMA TRACON (SMA)
03:32PM 40.1375 -76.0981 100° East 356 410 10,400 -1,200 Descending FAA TRACON SMA TRACON (SMA)
03:32PM 40.1314 -76.0625 103° East 347 399 10,200 -300 Descending FAA TRACON SMA TRACON (SMA)
03:33PM 40.1253 -76.0203 101° East 310 357 10,200 -300 Level FAA TRACON SMA TRACON (SMA)
03:33PM 40.1203 -75.9883 102° East 285 328 10,000 -1,080 Descending FAA TRACON SMA TRACON (SMA)
03:33PM 40.1144 -75.9578 104° East 285 328 9,500 -1,800 Descending FAA TRACON SMA TRACON (SMA)
03:34PM 40.1089 -75.9192 101° East 281 323 8,800 -1,800 Descending FAA TRACON SMA TRACON (SMA)
03:34PM 40.1039 -75.8881 102° East 280 322 8,300 -1,200 Descending FAA TRACON SMA TRACON (SMA)
03:34PM 40.1006 -75.8586 98° East 280 322 8,000 -300 Descending FAA TRACON SMA TRACON (SMA)
03:35PM 40.0933 -75.8183 103° East 285 328 8,100 -300 Climbing FAA TRACON SMA TRACON (SMA)
03:35PM 40.0883 -75.7869 102° East 285 328 7,800 -1,200 Descending FAA TRACON SMA TRACON (SMA)
03:35PM 40.0761 -75.7603 121° Southeast 275 316 7,300 -1,200 Descending FAA TRACON SMA TRACON (SMA)
03:36PM 40.0533 -75.7378 143° Southeast 261 300 7,000 -1,380 Descending FAA TRACON SMA TRACON (SMA)
03:36PM 40.0336 -75.7244 153° Southeast 262 302 6,400 -1,380 Descending FAA TRACON SMA TRACON (SMA)
03:36PM 40.0150 -75.7092 148° Southeast 262 302 6,100 -480 Descending FAA TRACON SMA TRACON (SMA)
03:37PM 39.9897 -75.6914 152° Southeast 262 302 6,100 -120 Level FAA TRACON SMA TRACON (SMA)
03:37PM 39.9508 -75.6631 151° Southeast 264 304 6,000  Descending FAA TRACON SMA TRACON (SMA)
03:38PM 39.9250 -75.6458 153° Southeast 263 303 6,100  Climbing FAA TRACON SMA TRACON (SMA)
03:38PM 39.9069 -75.6328 151° Southeast 259 298 6,000 -600 Descending FAA TRACON SMA TRACON (SMA)
03:38PM 39.8917 -75.6192 146° Southeast 238 274 5,700 -900 Descending FAA TRACON SMA TRACON (SMA)
03:39PM 39.8731 -75.5961 136° Southeast 230 265 5,400 -900 Descending FAA TRACON SMA TRACON (SMA)
03:39PM 39.8678 -75.5739 107° East 209 241 5,100 -1,080 Descending FAA TRACON SMA TRACON (SMA)
03:39PM 39.8658 -75.5497 96° East 220 253 4,700 -1,500 Descending FAA TRACON SMA TRACON (SMA)
03:40PM 39.8600 -75.5178 103° East 219 252 4,100 -1,500 Descending FAA TRACON SMA TRACON (SMA)
03:40PM 39.8561 -75.4947 102° East 217 250 3,700 -1,200 Descending FAA TRACON SMA TRACON (SMA)
03:40PM 39.8522 -75.4725 103° East 218 251 3,300 -1,200 Descending FAA TRACON SMA TRACON (SMA)
03:41PM 39.8475 -75.4414 101° East 215 247 2,900 -1,080 Descending FAA TRACON SMA TRACON (SMA)
03:41PM 39.8442 -75.4194 101° East 206 237 2,600 -900 Descending FAA TRACON SMA TRACON (SMA)
03:41PM 39.8414 -75.3997 100° East 197 227 2,300 -1,200 Descending FAA TRACON SMA TRACON (SMA)
03:42PM 39.8414 -75.3739 90° East 183 211 1,800 -1,200 Descending FAA TRACON SMA TRACON (SMA)
03:42PM 39.8450 -75.3553 76° East 167 192 1,500 -1,080 Descending FAA TRACON SMA TRACON (SMA)
03:42PM 39.8494 -75.3347 74° East 158 182 1,100 -1,080 Descending FAA TRACON SMA TRACON (SMA)
03:43PM 39.8522 -75.3181 78° East 151 174 800 -780 Descending FAA TRACON SMA TRACON (SMA)
03:43PM 39.8556 -75.3022 75° East 146 168 600 -780 Descending FAA TRACON SMA TRACON (SMA)
03:43PM 39.8583 -75.2872 76° East 147 169 300 -600 Descending FAA TRACON SMA TRACON (SMA)
03:44PM 39.8603 -75.2778 75° East 149 171 200 -300 Descending FAA TRACON SMA TRACON (SMA)
03:46PM 39.8722 -75.2409 67° East  Level Estimated